Auburn Hills, MI (48321)

3:26 AM EST on December 04, 2016 (GMT -0500)
cass lake | | Change Station

Elev 938 ft 42.62 °N, 83.35 °W | Updated 55 seconds ago

Overcast
Overcast
35.2 °F
Feels Like 35 °F
N
0.0
Wind Variable Wind from WNW
Gusts 0.0 mph

Today
High -- | Low -- °F
--% Chance of Precip.
Yesterday
High -- | Low -- °F
Precip. -- in
Pressure 30.27 in
Visibility 10.0 miles
Clouds Overcast 3700 ft
Windchill 35 °F
Dew Point 30 °F
Humidity 81%
Rainfall 0.00 in
Snow Depth Not available.
7:47 AM 4:59 PM
Waxing Crescent, 21% visible
METAR KPTK 040753Z AUTO 00000KT 10SM OVC037 02/M02 A3024 RMK AO2 SLP249 T00171022 $
Pressure 30.27 in
Visibility 10.0 miles
Clouds Overcast 3700 ft
Windchill 35 °F
Dew Point 30 °F
Humidity 81%
Rainfall 0.00 in
Snow Depth Not available.
7:47 AM 4:59 PM
Waxing Crescent, 21% visible
METAR KPTK 040753Z AUTO 00000KT 10SM OVC037 02/M02 A3024 RMK AO2 SLP249 T00171022 $

10-Day Weather Forecast

Almanac

Astronomy

Dec. 04, 2016 Rise Set
Actual Time
Civil Twilight
Nautical Twilight
Astronomical Twilight
Moon
Length of Visible Light
Length of Day
Tomorrow will be .
, % of the Moon is Illuminated

Today's Extremes

State Highs State Lows

Community

WunderPhotos

Upload Photos

1,955,587 photos uploaded!

WunderBlog® & News

Nearby

Air Quality

  Air Quality AQ Index Pollutant
Not available.

Snow Depth

Station Depth Elevation

Earthquake Activity

City Distance Mag. Time & Date
Minimum magnitude displayed is 2.5.

Coastal Water Temperatures

Place Temperature

Stations

Nearby Weather Stations

Station Location Temp. Windchill Dew Point Humidity Wind Precip. Elev Updated Type
                   

Watches & Warnings

There are currently no watches in effect.